Latest Weather Observations for Adelaide Airport

IDS60901

Issued at 5:31 am CDT Tuesday 29 November 2022 (issued every 10 minutes, with the page automatically refreshed every 10 minutes)

About weather observations | Map of Adelaide area stations | Latest observations for Adelaide area | Other Formats
Station Details ID: 023034 Name: ADELAIDE AIRPORT Lat: -34.95 Lon: 138.52 Height: 2.0 m
Data from the previous 72 hours. | See also: Recent months at Adelaide Airport
Date/Time
CDT
Temp
°C
App
Temp
°C
Dew
Point
°C
Rel
Hum
%
Delta-T
°C
Wind Press
QNH
hPa
Press
MSL
hPa
Rain since
9am
mm
Dir  Spd
km/h
Gust
km/h
Spd
kts
Gust
kts
29/05:00am 14.8 12.5 7.6 62 3.6 SSE 9 11 5 6 1017.1 1017.1 0.0
29/04:30am 15.0 12.5 8.3 64 3.4 S 11 15 6 8 1016.9 1016.9 0.0
29/04:00am 15.1 11.9 8.6 65 3.3 S 15 20 8 11 1016.8 1016.8 0.0
29/03:30am 15.4 12.0 9.3 67 3.1 SW 17 22 9 12 1016.8 1016.8 0.0
29/03:00am 15.6 11.8 9.7 68 3.1 SSW 20 32 11 17 1016.9 1016.9 0.0
29/02:30am 15.9 11.8 7.9 59 4.0 SW 19 28 10 15 1016.8 1016.8 0.0
29/02:00am 15.8 12.7 7.1 56 4.3 SSW 13 20 7 11 1016.8 1016.8 0.0
29/01:30am 15.8 11.4 7.6 58 4.1 SW 20 28 11 15 1016.8 1016.8 0.0
29/01:00am 16.0 11.2 7.5 57 4.2 SSW 22 30 12 16 1016.9 1016.9 0.0
29/12:30am 15.9 10.7 8.9 63 3.6 SSW 26 32 14 17 1017.1 1017.1 0.0
29/12:00am 16.1 11.4 9.3 64 3.5 SW 24 33 13 18 1017.0 1017.0 0.0
 
Date/Time
CDT
Temp
°C
App
Temp
°C
Dew
Point
°C
Rel
Hum
%
Delta-T
°C
Wind Press
QNH
hPa
Press
MSL
hPa
Rain since
9am
mm
Dir  Spd
km/h
Gust
km/h
Spd
kts
Gust
kts
28/11:30pm 16.2 12.3 9.6 65 3.4 SSW 20 30 11 16 1016.9 1016.9 0.0
28/11:00pm 16.3 11.8 9.9 66 3.4 SW 24 32 13 17 1016.8 1016.8 0.0
28/10:30pm 16.2 11.1 10.7 70 2.9 SW 28 35 15 19 1016.7 1016.7 0.0
28/10:00pm 16.2 12.3 10.7 70 2.9 SW 22 32 12 17 1016.4 1016.4 0.0
28/09:30pm 16.2 11.2 10.9 71 2.8 SW 28 37 15 20 1016.0 1016.0 0.0
28/09:00pm 16.1 10.9 10.4 69 3.0 SW 28 33 15 18 1015.5 1015.5 0.0
28/08:30pm 15.9 10.7 10.2 69 3.0 SW 28 35 15 19 1015.2 1015.2 0.0
28/08:00pm 16.1 11.3 10.2 68 3.1 SW 26 30 14 16 1014.9 1014.9 0.0
28/07:30pm 16.4 11.1 10.0 66 3.4 WSW 28 33 15 18 1014.7 1014.7 0.0
28/07:00pm 16.7 11.8 10.1 65 3.5 SW 26 33 14 18 1014.6 1014.6 0.0
28/06:30pm 17.0 11.8 10.1 64 3.6 SW 28 33 15 18 1014.3 1014.3 0.0
28/06:00pm 17.5 12.6 9.9 61 4.0 SW 26 32 14 17 1013.9 1013.9 0.0
28/05:30pm 17.2 12.6 9.6 61 4.0 SW 24 32 13 17 1013.8 1013.8 0.0
28/05:00pm 17.3 12.0 10.0 62 3.9 SW 28 35 15 19 1013.8 1013.8 0.0
28/04:30pm 17.8 12.8 9.7 59 4.3 SW 26 33 14 18 1013.8 1013.8 0.0
28/04:00pm 17.7 13.0 9.3 58 4.4 SW 24 32 13 17 1013.7 1013.7 0.0
28/03:30pm 18.2 13.4 9.0 55 4.8 SW 24 33 13 18 1013.8 1013.8 0.0
28/03:00pm 17.9 13.4 8.7 55 4.8 SW 22 32 12 17 1013.8 1013.8 0.0
28/02:30pm 16.6 12.7 9.3 62 3.8 WSW 20 28 11 15 1014.1 1014.1 0.0
28/02:00pm 17.0 13.1 9.4 61 4.0 WSW 20 28 11 15 1014.1 1014.1 0.0
28/01:30pm 16.7 12.9 8.9 60 4.0 WSW 19 28 10 15 1014.2 1014.2 0.0
28/01:00pm 17.0 12.8 8.4 57 4.4 WSW 20 30 11 16 1014.5 1014.5 0.0
28/12:30pm 17.4 13.3 8.5 56 4.6 SW 20 33 11 18 1014.4 1014.4 0.0
28/12:00pm 17.1 13.0 8.8 58 4.3 SW 20 33 11 18 1014.3 1014.3 0.0
28/11:30am 16.6 12.8 9.8 64 3.6 WSW 20 30 11 16 1014.4 1014.4 0.0
28/11:00am 15.3 12.0 9.4 68 3.0 WSW 17 22 9 12 1014.4 1014.4 0.0
28/10:30am 16.0 11.1 8.5 61 3.8 SW 24 32 13 17 1014.2 1014.2 0.0
28/10:00am 16.2 11.3 8.4 60 4.0 SW 24 32 13 17 1014.2 1014.2 0.0
28/09:30am 15.8 10.7 7.8 59 4.0 SW 24 35 13 19 1014.0 1014.0 0.0
28/09:00am 15.7 10.6 7.7 59 4.0 SW 24 30 13 16 1014.0 1014.0 0.0
28/08:30am 15.0 9.6 8.0 63 3.5 WSW 26 32 14 17 1013.5 1013.5 0.0
28/08:00am 14.9 10.7 8.4 65 3.3 SW 20 26 11 14 1013.2 1013.2 0.0
28/07:30am 15.1 11.4 8.1 63 3.5 SW 17 28 9 15 1012.8 1012.8 0.0
28/07:00am 14.5 9.7 7.5 63 3.5 SW 22 30 12 16 1012.6 1012.6 0.0
28/06:30am 14.3 10.1 7.4 63 3.4 SW 19 26 10 14 1012.4 1012.4 0.0
28/06:00am 14.2 8.7 6.1 58 3.9 SW 24 33 13 18 1012.2 1012.2 0.0
28/05:30am 14.5 8.9 5.6 55 4.2 SW 24 33 13 18 1012.0 1012.0 0.0
28/05:00am 14.4 10.0 7.2 62 3.5 SSW 20 30 11 16 1011.8 1011.8 0.0
28/04:30am 14.4 9.9 7.0 61 3.6 SW 20 30 11 16 1011.5 1011.5 0.0
28/04:00am 14.6 9.1 7.4 62 3.5 SW 26 33 14 18 1011.3 1011.3 0.0
28/03:30am 14.6 9.9 6.2 57 4.0 SW 20 30 11 16 1011.3 1011.3 0.0
28/03:00am 14.5 10.3 7.5 63 3.5 SSW 19 28 10 15 1011.3 1011.3 0.0
28/02:30am 14.5 10.4 8.7 68 2.9 SSW 20 30 11 16 1011.5 1011.5 0.0
28/02:00am 14.5 12.8 8.5 67 3.0 SSW 7 17 4 9 1011.7 1011.7 0.0
28/01:30am 12.8 12.6 8.9 77 2.0 CALM 0 0 0 0 1011.9 1011.9 0.0
28/01:00am 12.7 10.9 9.3 80 1.7 SSE 9 13 5 7 1012.2 1012.2 0.0
28/12:30am 13.0 9.3 9.6 80 1.7 S 19 26 10 14 1012.4 1012.4 0.0
28/12:00am 14.6 11.8 8.5 67 3.1 S 13 15 7 8 1012.4 1012.4 0.0
 
Date/Time
CDT
Temp
°C
App
Temp
°C
Dew
Point
°C
Rel
Hum
%
Delta-T
°C
Wind Press
QNH
hPa
Press
MSL
hPa
Rain since
9am
mm
Dir  Spd
km/h
Gust
km/h
Spd
kts
Gust
kts
27/11:30pm 14.7 11.8 8.0 64 3.3 S 13 17 7 9 1012.5 1012.5 0.0
27/11:00pm 14.7 11.2 7.3 61 3.6 S 15 19 8 10 1012.4 1012.4 0.0
27/10:30pm 14.7 11.3 7.7 63 3.5 S 15 20 8 11 1012.2 1012.2 0.0
27/10:00pm 14.6 11.7 8.1 65 3.2 SSE 13 17 7 9 1011.8 1011.8 0.0
27/09:30pm 14.8 11.4 9.2 69 2.9 S 17 22 9 12 1011.5 1011.5 0.0
27/09:00pm 15.1 12.9 9.2 68 3.0 SSW 11 19 6 10 1011.2 1011.2 0.0
27/08:30pm 15.3 12.0 9.7 69 2.9 SSW 17 24 9 13 1011.0 1011.0 0.0
27/08:00pm 15.4 11.9 10.2 71 2.7 SSW 19 26 10 14 1010.9 1010.9 0.0
27/07:30pm 15.3 11.8 10.9 75 2.3 SW 20 30 11 16 1010.5 1010.5 0.0
27/07:00pm 15.7 11.8 10.9 73 2.6 SSW 22 32 12 17 1010.2 1010.2 0.0
27/06:30pm 16.3 13.0 11.7 74 2.5 SSW 20 30 11 16 1009.9 1009.9 0.0
27/06:00pm 16.6 12.8 11.1 70 3.0 SSW 22 28 12 15 1009.8 1009.8 0.0
27/05:30pm 16.4 12.7 11.6 73 2.6 SSW 22 28 12 15 1009.9 1009.9 0.0
27/05:08pm 16.5 11.9 12.3 76 2.3 SSW 28 35 15 19 1010.0 1010.0 0.0
27/05:00pm 16.6 12.0 12.4 76 2.3 SW 28 37 15 20 1010.1 1010.1 0.0
27/04:49pm 15.8 12.0 12.5 81 1.8 SW 24 33 13 18 1010.0 1010.0 0.0
27/04:30pm 15.8 12.7 13.3 85 1.4 SW 22 33 12 18 1009.9 1009.9 0.0
27/04:00pm 17.3 13.7 11.8 70 3.0 SW 22 33 12 18 1009.8 1009.8 0.0
27/03:30pm 18.2 15.2 12.4 69 3.2 SW 20 30 11 16 1009.6 1009.6 0.0
27/03:00pm 17.8 14.7 11.6 67 3.4 SW 19 26 10 14 1009.5 1009.5 0.0
27/02:30pm 18.0 14.2 12.5 70 3.1 SW 24 33 13 18 1009.6 1009.6 0.0
27/02:00pm 18.2 13.8 12.9 71 3.0 SSW 28 35 15 19 1009.6 1009.6 0.0
27/01:30pm 18.4 13.0 11.0 62 4.0 SW 30 35 16 19 1009.7 1009.7 0.0
27/01:00pm 18.5 14.2 10.6 60 4.3 SW 24 32 13 17 1009.8 1009.8 0.0
27/12:30pm 19.1 15.1 11.7 62 4.1 SW 24 32 13 17 1009.9 1009.9 0.0
27/12:00pm 17.7 12.5 11.5 67 3.4 SW 30 37 16 20 1009.9 1009.9 0.0
27/11:30am 17.3 13.0 10.9 66 3.4 WSW 24 32 13 17 1009.8 1009.8 0.0
27/11:00am 17.3 13.4 10.7 65 3.5 WSW 22 30 12 16 1010.0 1010.0 0.0
27/10:30am 17.9 14.8 12.1 69 3.2 W 20 30 11 16 1009.9 1009.9 0.0
27/10:00am 16.4 14.0 11.3 72 2.7 W 15 20 8 11 1009.9 1009.9 0.0
27/09:30am 16.5 13.7 10.1 66 3.4 WSW 15 19 8 10 1009.9 1009.9 0.0
27/09:00am 16.4 13.4 9.1 62 3.8 WSW 15 20 8 11 1009.7 1009.7 0.0
27/08:30am 16.3 13.1 9.9 66 3.4 SW 17 22 9 12 1009.5 1009.5 0.0
27/08:00am 16.2 11.9 9.4 64 3.5 SW 22 30 12 16 1009.2 1009.2 0.0
27/07:30am 16.0 12.0 8.2 60 4.0 SW 19 24 10 13 1009.0 1009.0 0.0
27/07:00am 15.7 11.0 9.1 65 3.4 SW 24 30 13 16 1008.8 1008.8 0.0
27/06:30am 15.5 11.1 10.5 72 2.6 SSW 24 35 13 19 1008.3 1008.3 0.0
27/06:00am 15.3 11.7 10.5 73 2.5 SSW 20 32 11 17 1008.1 1008.1 0.0
27/05:30am 15.5 10.4 10.5 72 2.6 SW 28 37 15 20 1007.7 1007.7 0.0
27/05:00am 15.8 11.5 10.8 72 2.7 SW 24 32 13 17 1007.6 1007.6 0.0
27/04:30am 15.9 12.7 11.3 74 2.5 SSW 19 26 10 14 1007.5 1007.5 0.0
27/04:00am 16.0 12.8 11.2 73 2.6 SSW 19 28 10 15 1007.6 1007.6 0.0
27/03:30am 16.0 13.2 11.2 73 2.6 SSW 17 22 9 12 1007.4 1007.4 0.0
27/03:00am 16.0 12.8 11.8 76 2.3 SSW 20 28 11 15 1007.4 1007.4 0.0
27/02:30am 16.1 13.1 12.1 77 2.2 SSW 19 26 10 14 1007.5 1007.5 0.0
27/02:00am 16.1 12.9 13.0 82 1.7 SSW 22 30 12 16 1007.4 1007.4 0.0
27/01:34am 16.4 13.8 13.1 81 1.8 SSW 19 24 10 13 1007.7 1007.7 0.0
27/01:30am 16.4 14.1 13.1 81 1.8 SSW 17 24 9 13 1007.7 1007.7 0.0
27/01:20am 16.4 14.5 12.9 80 1.9 SSW 15 24 8 13 1007.7 1007.7 0.0
27/01:00am 16.5 13.6 12.8 79 2.1 SSW 20 28 11 15 1007.9 1007.9 0.0
27/12:30am 16.5 13.1 13.6 83 1.6 SSW 24 33 13 18 1008.0 1008.0 0.0
27/12:00am 16.8 13.9 13.9 83 1.6 SSW 22 33 12 18 1008.1 1008.1 0.0
 
Date/Time
CDT
Temp
°C
App
Temp
°C
Dew
Point
°C
Rel
Hum
%
Delta-T
°C
Wind Press
QNH
hPa
Press
MSL
hPa
Rain since
9am
mm
Dir  Spd
km/h
Gust
km/h
Spd
kts
Gust
kts
26/11:30pm 17.2 15.9 14.8 86 1.4 SW 15 20 8 11 1008.1 1008.1 0.0
26/11:17pm 17.2 15.0 14.8 86 1.4 SW 20 28 11 15 1008.0 1008.0 0.0
26/11:00pm 17.5 14.2 15.1 86 1.4 SW 26 35 14 19 1008.1 1008.1 0.0
26/10:52pm 17.4 14.1 15.0 86 1.4 SW 26 35 14 19 1008.0 1008.0 0.0
26/10:30pm 17.2 14.6 14.8 86 1.4 SW 22 30 12 16 1008.0 1008.0 0.0
26/10:00pm 17.0 14.9 14.6 86 1.4 SW 19 26 10 14 1007.9 1007.9 0.0
26/09:40pm 17.0 15.6 14.5 85 1.4 SSW 15 19 8 10 1007.8 1007.8 0.0
26/09:30pm 17.1 15.7 14.6 85 1.4 SSW 15 20 8 11 1007.8 1007.8 0.0
26/09:00pm 17.4 16.4 14.7 84 1.6 SW 13 19 7 10 1007.8 1007.8 0.0
26/08:30pm 17.2 15.7 14.3 83 1.7 SSW 15 26 8 14 1007.6 1007.6 0.0
26/08:00pm 17.4 14.2 14.3 82 1.8 SW 24 33 13 18 1007.5 1007.5 0.0
26/07:30pm 17.7 14.1 14.2 80 2.0 SW 26 33 14 18 1007.0 1007.0 0.0
26/07:00pm 18.3 15.6 14.6 79 2.1 SSW 22 33 12 18 1006.7 1006.7 0.0
26/06:30pm 18.9 16.3 13.7 72 3.0 SSW 20 30 11 16 1006.2 1006.2 0.0
26/06:00pm 19.1 16.3 14.4 74 2.7 SSW 22 28 12 15 1006.0 1006.0 0.0
26/05:30pm 20.3 16.7 14.2 68 3.5 SW 26 32 14 17 1005.9 1005.9 0.0
26/05:00pm 20.9 16.8 13.8 64 4.1 WSW 28 35 15 19 1005.9 1005.9 0.0
26/04:30pm 22.0 18.7 14.9 64 4.2 WSW 26 33 14 18 1005.8 1005.8 0.0
26/04:00pm 21.5 17.5 15.3 68 3.7 SW 30 39 16 21 1005.8 1005.8 0.0
26/03:52pm 21.7 19.4 14.6 64 4.2 WNW 20 39 11 21 1005.7 1005.7 0.0
26/03:30pm 23.5 22.3 15.0 59 5.1 NW 15 19 8 10 1005.3 1005.3 0.0
26/03:00pm 22.5 21.0 14.1 59 4.9 W 15 20 8 11 1005.4 1005.4 0.0
26/02:30pm 22.1 19.7 13.7 59 4.9 WSW 19 24 10 13 1005.8 1005.8 0.0
26/02:00pm 21.1 19.9 15.0 68 3.6 WSW 15 19 8 10 1006.0 1006.0 0.0
26/01:30pm 20.8 18.4 14.5 67 3.7 WNW 20 26 11 14 1006.1 1006.1 0.0
26/01:00pm 21.1 18.5 13.3 61 4.5 WNW 19 30 10 16 1006.0 1006.0 0.0
26/12:30pm 21.2 19.8 13.4 61 4.5 NW 13 22 7 12 1006.1 1006.1 0.0
26/12:00pm 20.8 19.5 12.5 59 4.7 NNW 11 15 6 8 1006.0 1006.0 0.0
26/11:30am 20.5 16.2 13.2 63 4.2 WNW 28 37 15 20 1006.5 1006.5 0.0
26/11:19am 20.9 17.6 14.1 65 3.9 NW 24 37 13 20 1006.4 1006.4 0.0
26/11:00am 22.8 20.5 11.8 50 6.2 NW 15 19 8 10 1005.7 1005.7 0.0
26/10:30am 24.0 20.6 10.7 43 7.4 N 19 30 10 16 1005.3 1005.3 0.0
26/10:00am 25.7 19.8 7.3 31 9.7 NNE 28 35 15 19 1004.9 1004.9 0.0
26/09:30am 25.3 19.2 6.5 30 9.8 NNE 28 33 15 18 1004.8 1004.8 0.0
26/09:00am 25.1 18.2 6.3 30 9.7 NNE 32 37 17 20 1005.0 1005.0 0.0
26/08:30am 24.9 17.7 6.1 30 9.7 NNE 33 43 18 23 1005.1 1005.1 0.0
26/08:00am 24.8 17.7 5.6 29 9.8 NNE 32 39 17 21 1005.1 1005.1 0.0
26/07:30am 24.8 17.4 5.1 28 10.0 NNE 33 48 18 26 1005.0 1005.0 0.0
26/07:00am 24.8 17.5 4.5 27 10.1 NNE 32 46 17 25 1005.0 1005.0 0.0
26/06:30am 24.8 17.4 4.0 26 10.3 NNE 32 37 17 20 1005.2 1005.2 0.0
26/06:00am 24.9 18.2 3.5 25 10.5 NNE 28 37 15 20 1005.3 1005.3 0.0

Latest Capital City Observations: Canberra | Sydney | Melbourne | Brisbane | Adelaide | Perth | Hobart | Darwin

Other formats

Comma delimited format used in spreadsheet applications
http://www.bom.gov.au/fwo/IDS60901/IDS60901.94672.axf

JavaScript Object Notation format (JSON) in row-major order
http://www.bom.gov.au/fwo/IDS60901/IDS60901.94672.json

Data quality

Most of these data are generated automatically and are frequently updated. Quality checks on data are not normally performed. It is possible for incorrect values to appear. Refer to information at About Latest Weather Observations and please check the disclaimer before using these data.